Time;durP1;ratioP1;P1;durP2;ratioP2;P2;SDS_P1;SDS_P2;PMS_P1;PMS_P2;Temp;Humidity;BMP_temperature;BMP_pressure;BME280_temperature;BME280_humidity;BME280_pressure;Samples;Min_cycle;Max_cycle;Signal;HPM_P1;HPM_P2
2023/03/12 00:01:45;;;;;;;13.57;6.20;;;;;;;;;;7363174;19;20827;-81
2023/03/12 00:04:10;;;;;;;16.40;5.55;;;;;;;;;;7368235;19;20283;-83
2023/03/12 00:06:36;;;;;;;16.50;5.47;;;;;;;;;;7360341;19;20086;-81
2023/03/12 00:09:02;;;;;;;16.17;6.57;;;;;;;;;;7369748;19;20070;-82
2023/03/12 00:11:27;;;;;;;23.88;7.82;;;;;;;;;;7369340;19;20018;-82
2023/03/12 00:13:53;;;;;;;19.23;7.35;;;;;;;;;;7366811;19;20454;-83
2023/03/12 00:16:19;;;;;;;16.83;6.97;;;;;;;;;;7368289;19;20023;-82
2023/03/12 00:18:46;;;;;;;21.67;7.18;;;;;;;;;;7363772;19;20522;-81
2023/03/12 00:21:11;;;;;;;14.02;6.30;;;;;;;;;;7368157;19;20417;-81
2023/03/12 00:23:36;;;;;;;24.90;6.63;;;;;;;;;;7360656;19;20031;-81
2023/03/12 00:26:02;;;;;;;15.10;5.10;;;;;;;;;;7364355;19;20003;-80
2023/03/12 00:28:28;;;;;;;17.27;5.90;;;;;;;;;;7361914;19;20154;-82
2023/03/12 00:30:53;;;;;;;15.15;5.85;;;;;;;;;;7365124;19;20118;-82
2023/03/12 00:33:18;;;;;;;13.63;5.10;;;;;;;;;;7370913;19;20018;-81
2023/03/12 00:35:44;;;;;;;14.43;5.07;;;;;;;;;;7361279;19;20030;-83
2023/03/12 00:38:09;;;;;;;17.23;5.32;;;;;;;;;;7367890;19;20007;-83
2023/03/12 00:40:34;;;;;;;16.23;5.32;;;;;;;;;;7371265;19;20010;-82
2023/03/12 00:42:59;;;;;;;20.05;8.88;;;;;;;;;;7369753;19;20490;-82
2023/03/12 00:45:24;;;;;;;16.85;6.82;;;;;;;;;;7368581;19;20018;-81
2023/03/12 00:47:49;;;;;;;13.85;6.20;;;;;;;;;;7370521;19;20011;-81
2023/03/12 00:50:15;;;;;;;12.23;5.05;;;;;;;;;;7369119;19;20014;-81
2023/03/12 00:52:40;;;;;;;15.88;4.57;;;;;;;;;;7368123;19;20192;-81
2023/03/12 00:55:05;;;;;;;14.23;5.68;;;;;;;;;;7368448;19;20375;-82
2023/03/12 00:57:30;;;;;;;12.25;5.20;;;;;;;;;;7365563;19;20399;-83
2023/03/12 00:59:56;;;;;;;17.30;5.27;;;;;;;;;;7370902;19;20597;-81
2023/03/12 01:02:21;;;;;;;11.93;4.75;;;;;;;;;;7370766;19;20279;-81
2023/03/12 01:04:46;;;;;;;13.75;5.28;;;;;;;;;;7346324;19;20018;-81
2023/03/12 01:07:11;;;;;;;13.50;4.82;;;;;;;;;;7376537;19;20010;-81
2023/03/12 01:09:36;;;;;;;19.77;5.68;;;;;;;;;;7368583;19;20010;-81
2023/03/12 01:12:01;;;;;;;15.18;5.60;;;;;;;;;;7375121;19;20408;-81
2023/03/12 01:14:27;;;;;;;10.82;4.57;;;;;;;;;;7372323;19;20587;-81
2023/03/12 01:16:52;;;;;;;13.85;5.40;;;;;;;;;;7374576;19;20022;-82
2023/03/12 01:19:17;;;;;;;14.83;4.80;;;;;;;;;;7370918;19;20024;-80
2023/03/12 01:21:42;;;;;;;13.73;5.93;;;;;;;;;;7371894;19;20275;-81
2023/03/12 01:24:07;;;;;;;11.13;4.70;;;;;;;;;;7375342;19;20472;-81
2023/03/12 01:26:33;;;;;;;14.93;5.93;;;;;;;;;;7372784;19;20265;-82
2023/03/12 01:28:58;;;;;;;15.93;5.60;;;;;;;;;;7375671;19;20134;-82
2023/03/12 01:31:23;;;;;;;16.50;4.78;;;;;;;;;;7373691;19;20275;-82
2023/03/12 01:33:49;;;;;;;10.95;4.45;;;;;;;;;;7366028;19;20010;-82
2023/03/12 01:36:19;;;;;;;13.30;4.88;;;;;;;;;;7367234;19;20010;-81
2023/03/12 01:38:44;;;;;;;13.30;4.55;;;;;;;;;;7369523;19;20104;-81
2023/03/12 01:41:09;;;;;;;13.68;4.88;;;;;;;;;;7366657;19;20110;-83
2023/03/12 01:43:36;;;;;;;10.38;4.43;;;;;;;;;;7366345;19;20386;-82
2023/03/12 01:46:19;;;;;;;10.05;4.13;;;;;;;;;;7366490;19;20025;-81
2023/03/12 01:48:53;;;;;;;11.68;3.38;;;;;;;;;;7363090;19;20026;-81
2023/03/12 01:51:19;;;;;;;10.52;3.60;;;;;;;;;;7371449;19;20122;-81
2023/03/12 01:53:47;;;;;;;11.57;3.25;;;;;;;;;;7370556;19;20034;-84
2023/03/12 01:56:14;;;;;;;11.50;3.40;;;;;;;;;;7368477;19;20376;-82
2023/03/12 01:58:41;;;;;;;13.93;3.67;;;;;;;;;;7366826;19;20552;-82
2023/03/12 02:01:06;;;;;;;12.00;2.83;;;;;;;;;;7373293;19;20034;-82
2023/03/12 02:03:31;;;;;;;13.63;4.10;;;;;;;;;;7336940;19;20010;-84
2023/03/12 02:06:01;;;;;;;13.27;3.22;;;;;;;;;;7280378;19;20161;-83
2023/03/12 02:08:26;;;;;;;11.50;3.25;;;;;;;;;;7297291;19;20688;-83
2023/03/12 02:10:51;;;;;;;10.90;3.50;;;;;;;;;;7304659;19;20035;-84
2023/03/12 02:13:16;;;;;;;16.08;4.10;;;;;;;;;;7301678;19;20011;-81
2023/03/12 02:15:41;;;;;;;12.35;3.78;;;;;;;;;;7295190;19;20360;-81
2023/03/12 02:18:08;;;;;;;12.83;3.70;;;;;;;;;;7295822;19;20010;-82
2023/03/12 02:20:38;;;;;;;11.32;4.05;;;;;;;;;;7302284;19;20279;-83
2023/03/12 02:23:15;;;;;;;13.20;3.47;;;;;;;;;;7302696;19;20507;-84
2023/03/12 02:25:49;;;;;;;12.95;3.25;;;;;;;;;;7295252;19;20110;-82
2023/03/12 02:28:15;;;;;;;13.90;3.65;;;;;;;;;;7297148;19;20427;-82
2023/03/12 02:30:43;;;;;;;13.40;4.32;;;;;;;;;;7295518;19;20449;-83
2023/03/12 02:33:08;;;;;;;15.15;3.92;;;;;;;;;;7291947;19;20021;-83
2023/03/12 02:35:34;;;;;;;9.88;3.70;;;;;;;;;;7269370;19;20006;-82
2023/03/12 02:37:59;;;;;;;11.57;4.10;;;;;;;;;;7286612;19;20154;-83
2023/03/12 02:40:33;;;;;;;12.65;3.85;;;;;;;;;;7294158;19;20025;-82
2023/03/12 02:42:59;;;;;;;15.52;4.10;;;;;;;;;;7292476;19;20011;-82
2023/03/12 02:45:25;;;;;;;12.05;3.60;;;;;;;;;;7292298;19;20471;-82
2023/03/12 02:47:50;;;;;;;11.13;4.40;;;;;;;;;;7285434;19;20116;-82
2023/03/12 02:50:15;;;;;;;10.75;3.47;;;;;;;;;;7282886;19;20010;-83
2023/03/12 02:52:40;;;;;;;7.35;3.05;;;;;;;;;;7286867;19;20630;-83
2023/03/12 02:55:06;;;;;;;13.35;3.60;;;;;;;;;;7289616;19;20014;-83
2023/03/12 02:57:31;;;;;;;11.45;3.35;;;;;;;;;;7285551;19;20010;-81
2023/03/12 02:59:57;;;;;;;12.73;3.97;;;;;;;;;;7294911;19;20145;-81
2023/03/12 03:02:23;;;;;;;12.02;4.72;;;;;;;;;;7289038;19;20014;-81
2023/03/12 03:04:48;;;;;;;14.15;4.18;;;;;;;;;;7353907;19;20159;-82
2023/03/12 03:07:13;;;;;;;13.38;3.80;;;;;;;;;;7371904;19;20551;-82
2023/03/12 03:09:39;;;;;;;8.98;3.05;;;;;;;;;;7368285;19;20010;-83
2023/03/12 03:12:04;;;;;;;14.95;3.92;;;;;;;;;;7368061;19;20313;-81
2023/03/12 03:14:29;;;;;;;23.80;4.40;;;;;;;;;;7366423;19;20026;-82
2023/03/12 03:16:54;;;;;;;9.73;3.47;;;;;;;;;;7367823;19;20694;-82
2023/03/12 03:19:19;;;;;;;12.05;3.60;;;;;;;;;;7368073;19;20316;-82
2023/03/12 03:21:45;;;;;;;16.10;4.13;;;;;;;;;;7369541;19;20471;-81
2023/03/12 03:24:10;;;;;;;11.88;3.58;;;;;;;;;;7369124;19;20075;-81
2023/03/12 03:26:35;;;;;;;15.15;3.80;;;;;;;;;;7367966;19;20445;-82
2023/03/12 03:29:01;;;;;;;19.60;4.15;;;;;;;;;;7373092;19;20108;-82
2023/03/12 03:31:26;;;;;;;10.55;3.85;;;;;;;;;;7372976;19;20019;-81
2023/03/12 03:33:51;;;;;;;9.40;3.13;;;;;;;;;;7361793;19;20371;-83
2023/03/12 03:36:17;;;;;;;11.68;4.25;;;;;;;;;;7361592;19;20069;-82
2023/03/12 03:38:48;;;;;;;11.45;4.32;;;;;;;;;;7364472;19;20014;-82
2023/03/12 03:41:13;;;;;;;13.27;4.20;;;;;;;;;;7362971;19;20018;-82
2023/03/12 03:43:38;;;;;;;14.27;4.03;;;;;;;;;;7365997;19;20011;-82
2023/03/12 03:46:04;;;;;;;11.35;4.03;;;;;;;;;;7355556;19;20461;-81
2023/03/12 03:48:29;;;;;;;17.30;5.85;;;;;;;;;;7359665;19;20021;-82
2023/03/12 03:50:58;;;;;;;10.35;4.43;;;;;;;;;;7358579;19;20014;-81
2023/03/12 03:53:23;;;;;;;15.35;3.92;;;;;;;;;;7365601;19;20026;-82
2023/03/12 03:55:48;;;;;;;9.38;4.00;;;;;;;;;;7366230;19;20027;-82
2023/03/12 03:58:13;;;;;;;11.13;4.00;;;;;;;;;;7364649;19;20067;-80
2023/03/12 04:00:39;;;;;;;14.88;4.93;;;;;;;;;;7359796;19;20023;-83
2023/03/12 04:03:04;;;;;;;11.30;4.85;;;;;;;;;;7361650;19;20007;-82
2023/03/12 04:05:30;;;;;;;12.20;5.28;;;;;;;;;;7370041;19;20006;-81
2023/03/12 04:07:55;;;;;;;14.40;5.57;;;;;;;;;;7371650;19;20775;-81
2023/03/12 04:10:21;;;;;;;16.90;5.30;;;;;;;;;;7364346;19;20432;-83
2023/03/12 04:12:46;;;;;;;12.70;5.57;;;;;;;;;;7366848;19;20334;-83
2023/03/12 04:15:11;;;;;;;16.52;6.47;;;;;;;;;;7373159;19;20433;-82
2023/03/12 04:17:36;;;;;;;16.90;6.30;;;;;;;;;;7369039;19;20011;-81
2023/03/12 04:20:06;;;;;;;15.45;5.72;;;;;;;;;;7377061;19;20044;-82
2023/03/12 04:22:31;;;;;;;18.88;7.25;;;;;;;;;;7375883;19;20010;-81
2023/03/12 04:24:56;;;;;;;10.88;6.03;;;;;;;;;;7368905;19;20496;-83
2023/03/12 04:27:21;;;;;;;19.85;6.43;;;;;;;;;;7373555;19;20118;-81
2023/03/12 04:29:46;;;;;;;17.60;6.55;;;;;;;;;;7372122;19;20263;-80
2023/03/12 04:32:12;;;;;;;14.53;6.37;;;;;;;;;;7371464;19;20268;-81
2023/03/12 04:34:37;;;;;;;17.45;5.97;;;;;;;;;;7366043;19;20632;-83
2023/03/12 04:37:02;;;;;;;31.45;7.60;;;;;;;;;;7368990;19;20011;-82
2023/03/12 04:39:27;;;;;;;17.15;7.07;;;;;;;;;;7371101;19;20121;-81
2023/03/12 04:41:52;;;;;;;13.23;5.90;;;;;;;;;;7365152;19;20014;-81
2023/03/12 04:44:18;;;;;;;13.95;6.50;;;;;;;;;;7370908;19;20018;-81
2023/03/12 04:46:43;;;;;;;19.35;6.75;;;;;;;;;;7367815;19;20045;-81
2023/03/12 04:49:08;;;;;;;12.98;6.13;;;;;;;;;;7369921;19;20428;-82
2023/03/12 04:51:33;;;;;;;11.40;6.43;;;;;;;;;;7371440;19;20457;-82
2023/03/12 04:53:58;;;;;;;14.35;6.65;;;;;;;;;;7363368;19;20007;-81
2023/03/12 04:56:23;;;;;;;17.20;6.53;;;;;;;;;;7369220;19;20317;-82
2023/03/12 04:58:49;;;;;;;13.68;6.65;;;;;;;;;;7367995;19;20222;-83
2023/03/12 05:01:22;;;;;;;16.38;7.53;;;;;;;;;;7371224;19;20042;-82
2023/03/12 05:03:47;;;;;;;20.05;7.43;;;;;;;;;;7354895;19;20413;-81
2023/03/12 05:06:13;;;;;;;17.08;7.80;;;;;;;;;;7374887;19;20083;-81
2023/03/12 05:08:38;;;;;;;12.45;7.00;;;;;;;;;;7362902;19;20023;-81
2023/03/12 05:11:03;;;;;;;18.67;7.23;;;;;;;;;;7355119;19;20014;-82
2023/03/12 05:13:28;;;;;;;16.40;7.75;;;;;;;;;;7373009;19;20352;-81
2023/03/12 05:15:53;;;;;;;19.58;8.48;;;;;;;;;;7370255;19;20013;-81
2023/03/12 05:18:20;;;;;;;19.63;9.13;;;;;;;;;;7372369;19;20022;-82
2023/03/12 05:20:45;;;;;;;21.58;8.32;;;;;;;;;;7369142;19;20601;-81
2023/03/12 05:23:10;;;;;;;18.92;9.20;;;;;;;;;;7370474;19;20018;-82
2023/03/12 05:25:39;;;;;;;17.27;8.75;;;;;;;;;;7372315;19;20014;-82
2023/03/12 05:28:04;;;;;;;17.13;9.40;;;;;;;;;;7374782;19;20028;-82
2023/03/12 05:30:29;;;;;;;19.27;9.80;;;;;;;;;;7370373;19;20011;-81
2023/03/12 05:32:54;;;;;;;18.73;9.03;;;;;;;;;;7365478;19;20097;-81
2023/03/12 05:35:19;;;;;;;15.07;8.68;;;;;;;;;;7373587;19;20259;-83
2023/03/12 05:37:45;;;;;;;15.52;9.48;;;;;;;;;;7372150;19;20375;-82
2023/03/12 05:40:10;;;;;;;21.60;10.18;;;;;;;;;;7367387;19;20010;-81
2023/03/12 05:42:36;;;;;;;18.33;9.90;;;;;;;;;;7367857;19;20014;-82
2023/03/12 05:45:01;;;;;;;25.65;10.70;;;;;;;;;;7368481;19;20013;-81
2023/03/12 05:47:26;;;;;;;17.48;9.05;;;;;;;;;;7365245;19;20127;-81
2023/03/12 05:49:51;;;;;;;20.73;9.55;;;;;;;;;;7360918;19;20500;-82
2023/03/12 05:52:16;;;;;;;17.37;9.33;;;;;;;;;;7372640;19;20262;-81
2023/03/12 05:54:42;;;;;;;22.57;9.93;;;;;;;;;;7370115;19;20809;-82
2023/03/12 05:57:07;;;;;;;21.90;10.45;;;;;;;;;;7367285;19;20275;-83
2023/03/12 05:59:33;;;;;;;24.92;11.43;;;;;;;;;;7371010;19;20586;-82
2023/03/12 06:01:58;;;;;;;16.98;9.98;;;;;;;;;;7363356;19;20026;-80
2023/03/12 06:04:23;;;;;;;21.08;11.10;;;;;;;;;;7366854;19;20126;-81
2023/03/12 06:06:48;;;;;;;20.33;10.57;;;;;;;;;;7364293;19;20283;-81
2023/03/12 06:09:14;;;;;;;25.37;10.73;;;;;;;;;;7373260;19;20035;-81
2023/03/12 06:11:39;;;;;;;19.98;11.38;;;;;;;;;;7367729;19;20361;-82
2023/03/12 06:14:04;;;;;;;23.67;12.03;;;;;;;;;;7368045;19;20019;-82
2023/03/12 06:16:29;;;;;;;21.25;11.15;;;;;;;;;;7368867;19;20565;-83
2023/03/12 06:18:55;;;;;;;22.75;11.75;;;;;;;;;;7362848;19;20535;-81
2023/03/12 06:21:22;;;;;;;20.58;11.90;;;;;;;;;;7367790;19;20090;-81
2023/03/12 06:23:47;;;;;;;26.80;12.98;;;;;;;;;;7369453;19;20031;-81
2023/03/12 06:26:14;;;;;;;28.45;13.63;;;;;;;;;;7370473;19;20015;-81
2023/03/12 06:28:39;;;;;;;25.80;14.88;;;;;;;;;;7362702;19;20063;-84
2023/03/12 06:31:04;;;;;;;28.58;15.70;;;;;;;;;;7367524;19;20315;-82
2023/03/12 06:33:29;;;;;;;36.83;16.40;;;;;;;;;;7366120;19;20075;-82
2023/03/12 06:35:55;;;;;;;27.95;15.70;;;;;;;;;;7358628;19;20284;-80
2023/03/12 06:38:21;;;;;;;31.90;17.50;;;;;;;;;;7369067;19;20010;-81
2023/03/12 06:40:56;;;;;;;35.15;17.58;;;;;;;;;;7366519;19;20021;-82
2023/03/12 06:43:22;;;;;;;32.72;18.45;;;;;;;;;;7371613;19;20007;-81
2023/03/12 06:45:47;;;;;;;38.47;19.88;;;;;;;;;;7369860;19;20014;-82
2023/03/12 06:48:12;;;;;;;38.10;20.08;;;;;;;;;;7371116;19;20298;-81
2023/03/12 06:50:38;;;;;;;36.00;19.50;;;;;;;;;;7373911;19;20003;-82
2023/03/12 06:53:03;;;;;;;38.58;21.13;;;;;;;;;;7355421;19;20328;-82
2023/03/12 06:55:28;;;;;;;39.88;19.08;;;;;;;;;;7372242;19;20471;-81
2023/03/12 06:57:53;;;;;;;33.13;18.90;;;;;;;;;;7370159;19;20776;-81
2023/03/12 07:00:19;;;;;;;35.95;21.70;;;;;;;;;;7371258;19;20014;-83
2023/03/12 07:02:44;;;;;;;33.05;19.20;;;;;;;;;;7360365;19;20374;-82
2023/03/12 07:05:09;;;;;;;36.88;19.73;;;;;;;;;;7372195;19;20450;-81
2023/03/12 07:07:34;;;;;;;31.98;19.00;;;;;;;;;;7371124;19;20006;-81
2023/03/12 07:10:00;;;;;;;35.43;19.03;;;;;;;;;;7371680;19;21074;-81
2023/03/12 07:12:25;;;;;;;36.20;18.83;;;;;;;;;;7371296;19;20729;-83
2023/03/12 07:14:50;;;;;;;34.22;19.77;;;;;;;;;;7370542;19;20021;-81
2023/03/12 07:17:15;;;;;;;36.42;20.20;;;;;;;;;;7371100;19;20444;-82
2023/03/12 07:19:40;;;;;;;31.40;18.95;;;;;;;;;;7372506;19;20391;-82
2023/03/12 07:22:05;;;;;;;34.13;18.52;;;;;;;;;;7370573;19;20006;-82
2023/03/12 07:24:31;;;;;;;31.55;17.58;;;;;;;;;;7375006;19;20014;-81
2023/03/12 07:26:56;;;;;;;28.90;16.43;;;;;;;;;;7371634;19;19995;-81
2023/03/12 07:29:21;;;;;;;30.10;16.77;;;;;;;;;;7374253;19;20243;-81
2023/03/12 07:31:46;;;;;;;31.75;16.77;;;;;;;;;;7374978;19;20010;-83
2023/03/12 07:34:12;;;;;;;28.50;17.00;;;;;;;;;;7374373;19;20013;-82
2023/03/12 07:36:37;;;;;;;27.98;17.15;;;;;;;;;;7373038;19;20093;-83
2023/03/12 07:39:03;;;;;;;31.00;17.55;;;;;;;;;;7371468;19;20378;-81
2023/03/12 07:41:28;;;;;;;25.67;14.82;;;;;;;;;;7382590;19;20011;-84
2023/03/12 07:43:54;;;;;;;25.58;15.70;;;;;;;;;;7382077;19;20289;-82
2023/03/12 07:46:19;;;;;;;27.63;14.63;;;;;;;;;;7383853;19;20020;-82
2023/03/12 07:48:44;;;;;;;25.38;14.73;;;;;;;;;;7380619;19;20095;-82
2023/03/12 07:51:09;;;;;;;24.33;14.23;;;;;;;;;;7381749;19;20369;-79
2023/03/12 07:53:34;;;;;;;28.38;15.25;;;;;;;;;;7376163;19;20250;-80
2023/03/12 07:55:59;;;;;;;22.90;14.00;;;;;;;;;;7370535;19;20046;-79
2023/03/12 07:58:25;;;;;;;30.13;15.70;;;;;;;;;;7378082;19;20517;-79
2023/03/12 08:00:52;;;;;;;29.23;14.73;;;;;;;;;;7374227;19;20014;-82
2023/03/12 08:03:17;;;;;;;21.40;13.88;;;;;;;;;;7360308;19;20130;-80
2023/03/12 08:05:42;;;;;;;23.20;13.43;;;;;;;;;;7368752;19;20006;-80
2023/03/12 08:08:07;;;;;;;21.48;13.77;;;;;;;;;;7368923;19;20292;-79
2023/03/12 08:10:33;;;;;;;20.95;13.07;;;;;;;;;;7375672;19;20002;-79
2023/03/12 08:12:58;;;;;;;21.95;12.88;;;;;;;;;;7376279;19;20045;-79
2023/03/12 08:15:23;;;;;;;23.38;13.63;;;;;;;;;;7373919;19;20074;-81
2023/03/12 08:17:49;;;;;;;25.25;14.43;;;;;;;;;;7367587;19;20203;-80
2023/03/12 08:20:14;;;;;;;22.83;14.05;;;;;;;;;;7376523;19;20371;-81
2023/03/12 08:22:39;;;;;;;24.73;14.68;;;;;;;;;;7377139;19;20472;-80
2023/03/12 08:25:05;;;;;;;24.90;14.82;;;;;;;;;;7376252;19;20490;-80
2023/03/12 08:27:31;;;;;;;22.75;14.25;;;;;;;;;;7375081;19;20018;-79
2023/03/12 08:29:56;;;;;;;24.20;13.93;;;;;;;;;;7375061;19;20006;-80
2023/03/12 08:32:21;;;;;;;21.85;13.52;;;;;;;;;;7377178;19;20011;-81
2023/03/12 08:34:46;;;;;;;21.23;13.00;;;;;;;;;;7365065;19;20393;-80
2023/03/12 08:37:11;;;;;;;20.45;12.75;;;;;;;;;;7364505;19;20433;-79
2023/03/12 08:39:37;;;;;;;22.17;13.65;;;;;;;;;;7371604;19;20115;-80
2023/03/12 08:42:02;;;;;;;22.88;13.93;;;;;;;;;;7370216;19;20015;-80
2023/03/12 08:44:28;;;;;;;22.05;13.68;;;;;;;;;;7372489;19;21442;-80
2023/03/12 08:46:53;;;;;;;22.00;13.80;;;;;;;;;;7374269;19;20038;-81
2023/03/12 08:49:19;;;;;;;20.10;12.82;;;;;;;;;;7375451;19;20117;-80
2023/03/12 08:51:44;;;;;;;21.70;13.18;;;;;;;;;;7371572;19;20021;-81
2023/03/12 08:54:09;;;;;;;19.77;12.00;;;;;;;;;;7370367;19;20014;-80
2023/03/12 08:56:40;;;;;;;20.20;13.25;;;;;;;;;;7370582;19;20018;-81
2023/03/12 08:59:06;;;;;;;20.20;12.50;;;;;;;;;;7363590;19;20037;-81
2023/03/12 09:01:31;;;;;;;21.40;12.70;;;;;;;;;;7369342;19;20064;-83
2023/03/12 09:03:56;;;;;;;19.47;11.90;;;;;;;;;;7363002;19;20414;-81
2023/03/12 09:06:21;;;;;;;19.17;11.93;;;;;;;;;;7375743;19;20462;-81
2023/03/12 09:08:48;;;;;;;20.77;11.65;;;;;;;;;;7363823;19;20014;-81
2023/03/12 09:11:13;;;;;;;19.08;12.10;;;;;;;;;;7373084;19;20034;-81
2023/03/12 09:13:39;;;;;;;16.73;10.85;;;;;;;;;;7377864;19;20059;-81
2023/03/12 09:16:05;;;;;;;17.10;11.05;;;;;;;;;;7372652;19;20059;-82
2023/03/12 09:18:31;;;;;;;19.55;10.98;;;;;;;;;;7371708;19;20011;-81
2023/03/12 09:20:56;;;;;;;17.02;10.80;;;;;;;;;;7373894;19;20006;-81
2023/03/12 09:23:22;;;;;;;18.92;9.65;;;;;;;;;;7371032;19;20288;-81
2023/03/12 09:25:48;;;;;;;17.80;10.65;;;;;;;;;;7369909;19;20317;-79
2023/03/12 09:28:13;;;;;;;20.20;11.00;;;;;;;;;;7353236;19;20443;-81
2023/03/12 09:30:38;;;;;;;16.83;9.77;;;;;;;;;;7378008;19;20054;-80
2023/03/12 09:33:03;;;;;;;17.10;9.18;;;;;;;;;;7372018;19;20041;-79
2023/03/12 09:35:30;;;;;;;20.02;10.65;;;;;;;;;;7374737;19;20082;-81
2023/03/12 09:37:55;;;;;;;15.93;9.68;;;;;;;;;;7374124;19;20014;-81
2023/03/12 09:40:22;;;;;;;16.77;9.40;;;;;;;;;;7375561;19;20015;-82
2023/03/12 09:42:50;;;;;;;15.23;9.23;;;;;;;;;;7369716;19;20010;-81
2023/03/12 09:45:19;;;;;;;17.35;10.18;;;;;;;;;;7366293;19;20039;-82
2023/03/12 09:47:49;;;;;;;19.58;9.43;;;;;;;;;;7371832;19;20460;-81
2023/03/12 09:50:26;;;;;;;24.50;9.27;;;;;;;;;;7364253;19;20483;-82
2023/03/12 09:52:51;;;;;;;16.73;9.20;;;;;;;;;;7370608;19;20010;-83
2023/03/12 09:55:18;;;;;;;17.02;8.75;;;;;;;;;;7364284;19;20007;-80
2023/03/12 09:57:45;;;;;;;17.10;8.63;;;;;;;;;;7365287;19;20370;-81
2023/03/12 10:00:12;;;;;;;20.67;9.57;;;;;;;;;;7366132;19;20026;-81
2023/03/12 10:02:47;;;;;;;19.10;9.00;;;;;;;;;;7356280;19;20023;-81
2023/03/12 10:05:31;;;;;;;20.08;9.02;;;;;;;;;;7366094;19;20043;-81
2023/03/12 10:07:59;;;;;;;17.08;7.80;;;;;;;;;;7366959;19;20123;-81
2023/03/12 10:10:24;;;;;;;18.38;9.10;;;;;;;;;;7369072;19;20010;-82
2023/03/12 10:12:59;;;;;;;15.70;7.78;;;;;;;;;;7374797;19;20376;-81
2023/03/12 10:15:25;;;;;;;24.35;9.27;;;;;;;;;;7356515;19;20010;-82
2023/03/12 10:18:30;;;;;;;21.85;8.23;;;;;;;;;;7348974;19;20440;-82
2023/03/12 10:21:05;;;;;;;21.38;8.50;;;;;;;;;;7360686;19;20021;-81
2023/03/12 10:23:48;;;;;;;18.55;8.13;;;;;;;;;;7359792;19;20102;-82
2023/03/12 10:26:17;;;;;;;17.88;8.13;;;;;;;;;;7365532;19;20027;-82
2023/03/12 10:28:57;;;;;;;20.88;8.57;;;;;;;;;;7370034;19;20317;-81
2023/03/12 10:31:26;;;;;;;18.48;7.65;;;;;;;;;;7371727;19;20039;-81
2023/03/12 10:33:55;;;;;;;18.92;7.78;;;;;;;;;;7367378;19;20014;-83
2023/03/12 10:36:39;;;;;;;20.30;7.45;;;;;;;;;;7371737;19;20154;-81
2023/03/12 10:39:11;;;;;;;16.08;7.10;;;;;;;;;;7369711;19;20014;-83
2023/03/12 10:41:37;;;;;;;21.05;7.72;;;;;;;;;;7364551;19;20010;-81
2023/03/12 10:44:04;;;;;;;15.77;7.75;;;;;;;;;;7373391;19;20495;-81
2023/03/12 10:46:36;;;;;;;18.33;7.10;;;;;;;;;;7365576;19;20007;-82
2023/03/12 10:49:19;;;;;;;18.55;6.60;;;;;;;;;;7365929;19;20034;-82
2023/03/12 10:52:00;;;;;;;17.02;6.72;;;;;;;;;;7370044;19;20018;-81
2023/03/12 10:54:30;;;;;;;18.67;6.38;;;;;;;;;;7373671;19;20626;-81
2023/03/12 10:56:55;;;;;;;22.58;6.95;;;;;;;;;;7358727;19;20050;-82
2023/03/12 10:59:21;;;;;;;18.52;6.75;;;;;;;;;;7368902;19;20456;-82
2023/03/12 11:01:48;;;;;;;18.20;6.55;;;;;;;;;;7369129;19;20312;-83
2023/03/12 11:04:18;;;;;;;14.15;5.97;;;;;;;;;;7365632;19;20027;-81
2023/03/12 11:07:01;;;;;;;15.15;5.38;;;;;;;;;;7365076;19;20030;-82
2023/03/12 11:09:26;;;;;;;20.02;5.57;;;;;;;;;;7356375;19;21092;-81
2023/03/12 11:11:51;;;;;;;16.77;6.32;;;;;;;;;;7359125;19;20014;-80
2023/03/12 11:14:21;;;;;;;17.70;5.50;;;;;;;;;;7359338;19;21238;-82
2023/03/12 11:16:46;;;;;;;15.38;5.45;;;;;;;;;;7360566;19;20797;-80
2023/03/12 11:19:12;;;;;;;19.45;5.97;;;;;;;;;;7368079;19;20015;-81
2023/03/12 11:21:39;;;;;;;13.07;5.35;;;;;;;;;;7373690;19;20022;-80
2023/03/12 11:24:10;;;;;;;14.70;5.45;;;;;;;;;;7375451;19;20399;-80
2023/03/12 11:26:38;;;;;;;18.55;5.88;;;;;;;;;;7370075;19;20015;-81
2023/03/12 11:29:22;;;;;;;11.95;5.05;;;;;;;;;;7358980;19;20577;-82
2023/03/12 11:31:59;;;;;;;23.48;4.18;;;;;;;;;;7365438;19;20432;-81
2023/03/12 11:34:27;;;;;;;13.05;4.53;;;;;;;;;;7371499;19;20018;-82
2023/03/12 11:36:55;;;;;;;17.75;4.97;;;;;;;;;;7368877;19;20027;-80
2023/03/12 11:39:39;;;;;;;15.90;4.88;;;;;;;;;;7375024;19;20006;-80
2023/03/12 11:42:19;;;;;;;13.30;4.38;;;;;;;;;;7370036;19;20015;-80
2023/03/12 11:44:44;;;;;;;20.48;3.92;;;;;;;;;;7371968;19;20451;-82
2023/03/12 11:47:10;;;;;;;16.90;3.45;;;;;;;;;;7374903;19;20003;-81
2023/03/12 11:49:44;;;;;;;15.77;3.70;;;;;;;;;;7372736;19;20716;-81
2023/03/12 11:52:27;;;;;;;15.35;3.85;;;;;;;;;;7369049;19;20026;-81
2023/03/12 11:55:11;;;;;;;14.88;3.47;;;;;;;;;;7370004;19;20010;-81
2023/03/12 11:58:00;;;;;;;12.82;3.50;;;;;;;;;;7362916;19;20010;-81
2023/03/12 12:00:36;;;;;;;9.98;3.80;;;;;;;;;;7372505;19;20330;-79
2023/03/12 12:03:13;;;;;;;14.07;4.03;;;;;;;;;;7365464;19;20019;-79
2023/03/12 12:05:52;;;;;;;12.50;3.50;;;;;;;;;;7367443;19;20015;-79
2023/03/12 12:08:18;;;;;;;12.20;3.03;;;;;;;;;;7368127;19;20031;-82
2023/03/12 12:11:09;;;;;;;11.13;2.95;;;;;;;;;;7374095;19;20013;-82
2023/03/12 12:13:39;;;;;;;12.65;3.58;;;;;;;;;;7371226;19;20025;-79
2023/03/12 12:16:11;;;;;;;9.60;2.70;;;;;;;;;;7360468;19;20054;-80
2023/03/12 12:18:46;;;;;;;7.75;3.15;;;;;;;;;;7362711;19;20431;-82
2023/03/12 12:21:17;;;;;;;7.95;2.25;;;;;;;;;;7368911;19;20006;-81
2023/03/12 12:23:57;;;;;;;7.80;2.83;;;;;;;;;;7372878;19;20017;-83
2023/03/12 12:26:27;;;;;;;11.20;2.78;;;;;;;;;;7373059;19;20012;-81
2023/03/12 12:28:53;;;;;;;10.95;3.05;;;;;;;;;;7347997;19;20371;-81
2023/03/12 12:31:30;;;;;;;13.63;2.65;;;;;;;;;;7378953;19;20019;-80
2023/03/12 12:34:03;;;;;;;16.35;4.68;;;;;;;;;;7378770;19;20086;-81
2023/03/12 12:36:30;;;;;;;13.98;4.00;;;;;;;;;;7374375;19;20014;-80
2023/03/12 12:38:57;;;;;;;18.95;3.67;;;;;;;;;;7381235;19;20089;-81
2023/03/12 12:41:26;;;;;;;12.23;3.63;;;;;;;;;;7382314;19;20010;-80
2023/03/12 12:43:56;;;;;;;11.20;2.30;;;;;;;;;;7377644;19;20071;-81
2023/03/12 12:46:27;;;;;;;12.05;3.42;;;;;;;;;;7377103;19;20033;-80
2023/03/12 12:48:53;;;;;;;10.57;2.28;;;;;;;;;;7373616;19;20021;-81
2023/03/12 12:51:20;;;;;;;10.70;3.00;;;;;;;;;;7360335;19;20069;-81
2023/03/12 12:53:49;;;;;;;11.73;2.63;;;;;;;;;;7379084;19;20091;-81
2023/03/12 12:56:17;;;;;;;10.65;2.40;;;;;;;;;;7371233;19;20107;-80
2023/03/12 12:58:42;;;;;;;9.48;3.15;;;;;;;;;;7373033;19;20027;-81
2023/03/12 13:01:08;;;;;;;11.80;3.28;;;;;;;;;;7375894;19;20066;-81
2023/03/12 13:03:33;;;;;;;13.45;2.80;;;;;;;;;;7348064;19;20038;-81
2023/03/12 13:06:05;;;;;;;10.60;3.05;;;;;;;;;;7367711;19;20019;-81
2023/03/12 13:08:54;;;;;;;9.93;2.75;;;;;;;;;;7378859;19;20123;-81
2023/03/12 13:11:22;;;;;;;11.45;2.78;;;;;;;;;;7374746;19;20396;-80
2023/03/12 13:14:07;;;;;;;10.85;2.05;;;;;;;;;;7381370;19;20467;-81
2023/03/12 13:16:32;;;;;;;9.60;2.78;;;;;;;;;;7376351;19;20036;-80
2023/03/12 13:18:59;;;;;;;12.10;2.37;;;;;;;;;;7375986;19;20010;-81
2023/03/12 13:21:40;;;;;;;7.65;1.65;;;;;;;;;;7375939;19;20267;-83
2023/03/12 13:24:18;;;;;;;7.53;1.73;;;;;;;;;;7377185;19;20022;-81
2023/03/12 13:27:02;;;;;;;9.30;1.58;;;;;;;;;;7380943;19;20022;-80
2023/03/12 13:29:27;;;;;;;12.02;2.72;;;;;;;;;;7379366;19;20011;-82
2023/03/12 13:31:52;;;;;;;9.73;2.03;;;;;;;;;;7379799;19;20031;-80
2023/03/12 13:34:17;;;;;;;9.35;1.80;;;;;;;;;;7351613;19;20594;-82
2023/03/12 13:36:44;;;;;;;10.97;2.07;;;;;;;;;;7364856;19;20035;-82
2023/03/12 13:39:15;;;;;;;8.98;2.22;;;;;;;;;;7378225;19;20350;-82
2023/03/12 13:41:40;;;;;;;15.13;2.40;;;;;;;;;;7380303;19;20031;-81
2023/03/12 13:44:37;;;;;;;11.85;2.35;;;;;;;;;;7374929;19;20014;-81
2023/03/12 13:47:22;;;;;;;15.45;3.00;;;;;;;;;;7373026;19;20090;-81
2023/03/12 13:49:52;;;;;;;19.17;3.00;;;;;;;;;;7374693;19;20172;-81
2023/03/12 13:52:19;;;;;;;18.17;3.35;;;;;;;;;;7378364;19;20036;-80
2023/03/12 13:54:46;;;;;;;20.25;3.60;;;;;;;;;;7376124;19;20018;-80
2023/03/12 13:57:22;;;;;;;18.10;3.25;;;;;;;;;;7371035;19;20038;-81
